sensor_id;sensor_type;location;lat;lon;timestamp;pressure;altitude;pressure_sealevel;temperature;humidity
79236;BME280;69062;47.460;18.812;2024-01-25T00:00:57;100603.63;;;5.75;71.14
79236;BME280;69062;47.460;18.812;2024-01-25T00:03:00;100605.13;;;5.87;70.53
79236;BME280;69062;47.460;18.812;2024-01-25T00:05:03;100607.50;;;5.97;70.66
79236;BME280;69062;47.460;18.812;2024-01-25T00:07:08;100605.59;;;6.04;70.13
79236;BME280;69062;47.460;18.812;2024-01-25T00:09:11;100607.97;;;6.15;69.65
79236;BME280;69062;47.460;18.812;2024-01-25T00:11:14;100606.06;;;6.21;68.81
79236;BME280;69062;47.460;18.812;2024-01-25T00:13:17;100610.34;;;6.25;68.87
79236;BME280;69062;47.460;18.812;2024-01-25T00:15:20;100614.50;;;6.34;68.21
79236;BME280;69062;47.460;18.812;2024-01-25T00:17:22;100609.06;;;6.42;67.57
79236;BME280;69062;47.460;18.812;2024-01-25T00:19:25;100614.25;;;6.43;68.18
79236;BME280;69062;47.460;18.812;2024-01-25T00:21:28;100606.28;;;6.48;67.52
79236;BME280;69062;47.460;18.812;2024-01-25T00:23:32;100613.19;;;6.50;67.80
79236;BME280;69062;47.460;18.812;2024-01-25T00:25:35;100610.50;;;6.53;66.88
79236;BME280;69062;47.460;18.812;2024-01-25T00:27:38;100601.78;;;6.51;67.49
79236;BME280;69062;47.460;18.812;2024-01-25T00:29:41;100593.06;;;6.51;66.78
79236;BME280;69062;47.460;18.812;2024-01-25T00:31:44;100594.81;;;6.52;66.59
79236;BME280;69062;47.460;18.812;2024-01-25T00:33:47;100603.50;;;6.54;67.14
79236;BME280;69062;47.460;18.812;2024-01-25T00:35:50;100605.19;;;6.56;66.52
79236;BME280;69062;47.460;18.812;2024-01-25T00:37:53;100607.81;;;6.56;67.08
79236;BME280;69062;47.460;18.812;2024-01-25T00:39:56;100603.34;;;6.58;66.84
79236;BME280;69062;47.460;18.812;2024-01-25T00:42:04;100594.72;;;6.55;66.84
79236;BME280;69062;47.460;18.812;2024-01-25T00:44:08;100599.97;;;6.55;65.92
79236;BME280;69062;47.460;18.812;2024-01-25T00:46:11;100596.50;;;6.54;65.49
79236;BME280;69062;47.460;18.812;2024-01-25T00:48:14;100609.56;;;6.56;65.92
79236;BME280;69062;47.460;18.812;2024-01-25T00:50:18;100599.13;;;6.54;66.50
79236;BME280;69062;47.460;18.812;2024-01-25T00:52:23;100596.53;;;6.53;65.82
79236;BME280;69062;47.460;18.812;2024-01-25T00:54:27;100597.44;;;6.50;66.33
79236;BME280;69062;47.460;18.812;2024-01-25T00:56:30;100600.13;;;6.49;65.55
79236;BME280;69062;47.460;18.812;2024-01-25T00:58:33;100592.41;;;6.43;66.70
79236;BME280;69062;47.460;18.812;2024-01-25T01:00:35;100595.06;;;6.41;66.62
79236;BME280;69062;47.460;18.812;2024-01-25T01:02:45;100598.66;;;6.39;65.83
79236;BME280;69062;47.460;18.812;2024-01-25T01:04:48;100604.09;;;6.29;67.44
79236;BME280;69062;47.460;18.812;2024-01-25T01:06:52;100599.00;;;6.25;66.83
79236;BME280;69062;47.460;18.812;2024-01-25T01:08:55;100595.78;;;6.12;67.07
79236;BME280;69062;47.460;18.812;2024-01-25T01:10:57;100596.16;;;5.97;67.39
79236;BME280;69062;47.460;18.812;2024-01-25T01:13:00;100599.88;;;5.87;67.95
79236;BME280;69062;47.460;18.812;2024-01-25T01:15:03;100601.78;;;5.80;68.33
79236;BME280;69062;47.460;18.812;2024-01-25T01:17:06;100603.59;;;5.76;68.15
79236;BME280;69062;47.460;18.812;2024-01-25T01:19:09;100611.59;;;5.70;68.94
79236;BME280;69062;47.460;18.812;2024-01-25T01:21:12;100601.97;;;5.71;68.75
79236;BME280;69062;47.460;18.812;2024-01-25T01:23:15;100603.69;;;5.72;68.86
79236;BME280;69062;47.460;18.812;2024-01-25T01:25:18;100605.63;;;5.64;68.81
79236;BME280;69062;47.460;18.812;2024-01-25T01:27:21;100601.34;;;5.60;69.39
79236;BME280;69062;47.460;18.812;2024-01-25T01:29:24;100602.13;;;5.63;68.83
79236;BME280;69062;47.460;18.812;2024-01-25T01:31:26;100590.66;;;5.69;68.47
79236;BME280;69062;47.460;18.812;2024-01-25T01:33:29;100594.22;;;5.65;69.30
79236;BME280;69062;47.460;18.812;2024-01-25T01:35:32;100593.31;;;5.67;68.74
79236;BME280;69062;47.460;18.812;2024-01-25T01:37:35;100600.19;;;5.73;68.71
79236;BME280;69062;47.460;18.812;2024-01-25T01:39:38;100600.97;;;5.76;68.41
79236;BME280;69062;47.460;18.812;2024-01-25T01:41:41;100596.59;;;5.77;68.31
79236;BME280;69062;47.460;18.812;2024-01-25T01:43:43;100594.66;;;5.85;68.37
79236;BME280;69062;47.460;18.812;2024-01-25T01:45:46;100599.75;;;5.93;67.67
79236;BME280;69062;47.460;18.812;2024-01-25T01:47:49;100587.50;;;5.95;67.82
79236;BME280;69062;47.460;18.812;2024-01-25T01:49:53;100597.84;;;5.99;67.08
79236;BME280;69062;47.460;18.812;2024-01-25T01:51:56;100578.59;;;6.00;67.98
79236;BME280;69062;47.460;18.812;2024-01-25T01:54:00;100590.06;;;5.96;67.42
79236;BME280;69062;47.460;18.812;2024-01-25T01:56:04;100580.28;;;6.03;67.03
79236;BME280;69062;47.460;18.812;2024-01-25T01:58:07;100583.72;;;6.05;67.30
79236;BME280;69062;47.460;18.812;2024-01-25T02:00:11;100575.16;;;5.98;68.12
79236;BME280;69062;47.460;18.812;2024-01-25T02:02:17;100581.13;;;6.05;67.24
79236;BME280;69062;47.460;18.812;2024-01-25T02:04:19;100577.69;;;6.03;67.69
79236;BME280;69062;47.460;18.812;2024-01-25T02:06:25;100571.44;;;6.08;67.58
79236;BME280;69062;47.460;18.812;2024-01-25T02:08:29;100579.22;;;6.12;66.88
79236;BME280;69062;47.460;18.812;2024-01-25T02:10:32;100573.09;;;6.11;66.56
79236;BME280;69062;47.460;18.812;2024-01-25T02:12:35;100580.94;;;6.13;66.84
79236;BME280;69062;47.460;18.812;2024-01-25T02:14:38;100578.25;;;6.16;66.11
79236;BME280;69062;47.460;18.812;2024-01-25T02:16:41;100573.06;;;6.13;66.86
79236;BME280;69062;47.460;18.812;2024-01-25T02:18:48;100571.25;;;6.15;66.38
79236;BME280;69062;47.460;18.812;2024-01-25T02:20:51;100584.34;;;6.15;66.94
79236;BME280;69062;47.460;18.812;2024-01-25T02:22:54;100576.41;;;6.19;66.95
79236;BME280;69062;47.460;18.812;2024-01-25T02:24:57;100575.25;;;6.29;66.20
79236;BME280;69062;47.460;18.812;2024-01-25T02:27:00;100573.13;;;6.45;66.23
79236;BME280;69062;47.460;18.812;2024-01-25T02:29:02;100574.34;;;6.64;64.89
79236;BME280;69062;47.460;18.812;2024-01-25T02:31:07;100568.03;;;6.72;64.84
79236;BME280;69062;47.460;18.812;2024-01-25T02:33:10;100571.50;;;6.72;65.13
79236;BME280;69062;47.460;18.812;2024-01-25T02:35:13;100564.25;;;6.82;65.08
79236;BME280;69062;47.460;18.812;2024-01-25T02:37:16;100564.16;;;6.85;64.47
79236;BME280;69062;47.460;18.812;2024-01-25T02:39:19;100566.69;;;6.89;64.74
79236;BME280;69062;47.460;18.812;2024-01-25T02:41:22;100566.56;;;6.93;64.94
79236;BME280;69062;47.460;18.812;2024-01-25T02:43:25;100559.59;;;6.91;64.76
79236;BME280;69062;47.460;18.812;2024-01-25T02:45:27;100571.13;;;6.86;66.23
79236;BME280;69062;47.460;18.812;2024-01-25T02:47:30;100570.38;;;6.82;66.72
79236;BME280;69062;47.460;18.812;2024-01-25T02:49:33;100561.72;;;6.79;66.97
79236;BME280;69062;47.460;18.812;2024-01-25T02:51:36;100566.16;;;6.77;67.72
79236;BME280;69062;47.460;18.812;2024-01-25T02:53:39;100564.25;;;6.82;67.51
79236;BME280;69062;47.460;18.812;2024-01-25T02:55:42;100568.72;;;6.78;68.17
79236;BME280;69062;47.460;18.812;2024-01-25T02:57:45;100571.34;;;6.78;68.55
79236;BME280;69062;47.460;18.812;2024-01-25T02:59:47;100567.09;;;6.74;68.98
79236;BME280;69062;47.460;18.812;2024-01-25T03:01:50;100562.91;;;6.67;68.56
79236;BME280;69062;47.460;18.812;2024-01-25T03:03:53;100564.69;;;6.67;68.80
79236;BME280;69062;47.460;18.812;2024-01-25T03:05:56;100574.50;;;6.58;69.12
79236;BME280;69062;47.460;18.812;2024-01-25T03:07:59;100570.25;;;6.54;69.74
79236;BME280;69062;47.460;18.812;2024-01-25T03:10:02;100564.22;;;6.51;70.59
79236;BME280;69062;47.460;18.812;2024-01-25T03:12:05;100573.06;;;6.47;70.11
79236;BME280;69062;47.460;18.812;2024-01-25T03:14:08;100572.31;;;6.42;70.63
79236;BME280;69062;47.460;18.812;2024-01-25T03:16:11;100580.25;;;6.40;70.86
79236;BME280;69062;47.460;18.812;2024-01-25T03:18:13;100587.22;;;6.41;71.11
79236;BME280;69062;47.460;18.812;2024-01-25T03:20:16;100572.31;;;6.42;71.49
79236;BME280;69062;47.460;18.812;2024-01-25T03:22:19;100577.53;;;6.43;71.52
79236;BME280;69062;47.460;18.812;2024-01-25T03:24:22;100573.28;;;6.39;71.01
79236;BME280;69062;47.460;18.812;2024-01-25T03:26:29;100589.91;;;6.38;70.86
79236;BME280;69062;47.460;18.812;2024-01-25T03:28:34;100589.13;;;6.34;71.57
79236;BME280;69062;47.460;18.812;2024-01-25T03:30:38;100574.38;;;6.29;71.32
79236;BME280;69062;47.460;18.812;2024-01-25T03:32:41;100588.50;;;6.25;71.57
79236;BME280;69062;47.460;18.812;2024-01-25T03:34:44;100582.41;;;6.23;72.21
79236;BME280;69062;47.460;18.812;2024-01-25T03:36:47;100581.75;;;6.15;71.71
79236;BME280;69062;47.460;18.812;2024-01-25T03:38:49;100579.28;;;6.08;72.36
79236;BME280;69062;47.460;18.812;2024-01-25T03:40:52;100584.53;;;6.08;72.41
79236;BME280;69062;47.460;18.812;2024-01-25T03:42:55;100584.44;;;6.12;72.72
79236;BME280;69062;47.460;18.812;2024-01-25T03:45:18;100580.25;;;6.04;72.78
79236;BME280;69062;47.460;18.812;2024-01-25T03:47:21;100586.34;;;6.05;72.95
79236;BME280;69062;47.460;18.812;2024-01-25T03:49:23;100577.53;;;6.09;72.13
79236;BME280;69062;47.460;18.812;2024-01-25T03:51:26;100581.94;;;6.07;72.29
79236;BME280;69062;47.460;18.812;2024-01-25T03:53:29;100580.88;;;6.16;72.59
79236;BME280;69062;47.460;18.812;2024-01-25T03:55:32;100574.72;;;6.17;72.82
79236;BME280;69062;47.460;18.812;2024-01-25T03:57:35;100581.59;;;6.21;72.37
79236;BME280;69062;47.460;18.812;2024-01-25T03:59:38;100578.06;;;6.22;72.38
79236;BME280;69062;47.460;18.812;2024-01-25T04:01:43;100582.41;;;6.24;72.09
79236;BME280;69062;47.460;18.812;2024-01-25T04:03:46;100577.00;;;6.29;71.44
79236;BME280;69062;47.460;18.812;2024-01-25T04:05:48;100570.88;;;6.30;71.97
79236;BME280;69062;47.460;18.812;2024-01-25T04:07:52;100577.78;;;6.34;71.11
79236;BME280;69062;47.460;18.812;2024-01-25T04:09:55;100568.09;;;6.36;71.65
79236;BME280;69062;47.460;18.812;2024-01-25T04:11:57;100575.00;;;6.40;71.21
79236;BME280;69062;47.460;18.812;2024-01-25T04:14:00;100571.34;;;6.46;70.33
79236;BME280;69062;47.460;18.812;2024-01-25T04:16:03;100568.75;;;6.44;70.26
79236;BME280;69062;47.460;18.812;2024-01-25T04:18:06;100573.03;;;6.48;70.81
79236;BME280;69062;47.460;18.812;2024-01-25T04:20:09;100581.72;;;6.50;69.79
79236;BME280;69062;47.460;18.812;2024-01-25T04:22:13;100585.19;;;6.51;69.74
79236;BME280;69062;47.460;18.812;2024-01-25T04:24:15;100573.88;;;6.49;70.49
79236;BME280;69062;47.460;18.812;2024-01-25T04:26:18;100587.06;;;6.47;69.74
79236;BME280;69062;47.460;18.812;2024-01-25T04:28:21;100579.09;;;6.50;69.76
79236;BME280;69062;47.460;18.812;2024-01-25T04:30:24;100586.06;;;6.51;70.38
79236;BME280;69062;47.460;18.812;2024-01-25T04:32:27;100587.72;;;6.55;70.62
79236;BME280;69062;47.460;18.812;2024-01-25T04:34:29;100584.13;;;6.59;69.48
79236;BME280;69062;47.460;18.812;2024-01-25T04:36:32;100586.06;;;6.51;70.55
79236;BME280;69062;47.460;18.812;2024-01-25T04:38:35;100590.44;;;6.51;70.49
79236;BME280;69062;47.460;18.812;2024-01-25T04:40:38;100594.91;;;6.47;70.26
79236;BME280;69062;47.460;18.812;2024-01-25T04:42:41;100583.69;;;6.42;70.92
79236;BME280;69062;47.460;18.812;2024-01-25T04:44:44;100593.25;;;6.43;71.25
79236;BME280;69062;47.460;18.812;2024-01-25T04:46:46;100595.88;;;6.43;70.73
79236;BME280;69062;47.460;18.812;2024-01-25T04:48:49;100605.47;;;6.44;70.63
79236;BME280;69062;47.460;18.812;2024-01-25T04:50:53;100601.22;;;6.40;71.43
79236;BME280;69062;47.460;18.812;2024-01-25T04:52:56;100609.91;;;6.42;71.50
79236;BME280;69062;47.460;18.812;2024-01-25T04:54:58;100609.97;;;6.41;70.71
79236;BME280;69062;47.460;18.812;2024-01-25T04:57:01;100611.63;;;6.45;70.45
79236;BME280;69062;47.460;18.812;2024-01-25T04:59:08;100615.97;;;6.44;71.30
79236;BME280;69062;47.460;18.812;2024-01-25T05:01:11;100609.00;;;6.43;70.62
79236;BME280;69062;47.460;18.812;2024-01-25T05:03:14;100611.72;;;6.40;70.87
79236;BME280;69062;47.460;18.812;2024-01-25T05:05:17;100617.88;;;6.39;71.39
79236;BME280;69062;47.460;18.812;2024-01-25T05:07:20;100625.69;;;6.41;70.98
79236;BME280;69062;47.460;18.812;2024-01-25T05:09:31;100606.56;;;6.35;71.07
79236;BME280;69062;47.460;18.812;2024-01-25T05:11:39;100604.00;;;6.34;71.24
79236;BME280;69062;47.460;18.812;2024-01-25T05:13:42;100602.19;;;6.36;70.53
79236;BME280;69062;47.460;18.812;2024-01-25T05:15:44;100599.47;;;6.41;70.83
79236;BME280;69062;47.460;18.812;2024-01-25T05:17:47;100601.19;;;6.42;70.94
79236;BME280;69062;47.460;18.812;2024-01-25T05:19:50;100598.44;;;6.46;70.65
79236;BME280;69062;47.460;18.812;2024-01-25T05:21:53;100600.13;;;6.49;69.83
79236;BME280;69062;47.460;18.812;2024-01-25T05:23:56;100601.78;;;6.53;69.56
79236;BME280;69062;47.460;18.812;2024-01-25T05:25:59;100600.84;;;6.55;69.46
79236;BME280;69062;47.460;18.812;2024-01-25T05:28:02;100602.50;;;6.58;69.48
79236;BME280;69062;47.460;18.812;2024-01-25T05:30:06;100594.63;;;6.58;69.42
79236;BME280;69062;47.460;18.812;2024-01-25T05:32:10;100591.09;;;6.60;69.75
79236;BME280;69062;47.460;18.812;2024-01-25T05:34:12;100586.75;;;6.58;69.88
79236;BME280;69062;47.460;18.812;2024-01-25T05:36:15;100583.31;;;6.56;69.52
79236;BME280;69062;47.460;18.812;2024-01-25T05:38:18;100599.16;;;6.53;70.11
79236;BME280;69062;47.460;18.812;2024-01-25T05:40:21;100600.94;;;6.51;70.81
79236;BME280;69062;47.460;18.812;2024-01-25T05:42:24;100604.50;;;6.48;70.20
79236;BME280;69062;47.460;18.812;2024-01-25T05:44:27;100587.97;;;6.46;70.05
79236;BME280;69062;47.460;18.812;2024-01-25T05:46:29;100599.34;;;6.45;70.16
79236;BME280;69062;47.460;18.812;2024-01-25T05:48:32;100594.16;;;6.42;70.44
79236;BME280;69062;47.460;18.812;2024-01-25T05:50:35;100605.66;;;6.36;71.13
79236;BME280;69062;47.460;18.812;2024-01-25T05:52:38;100607.47;;;6.34;70.92
79236;BME280;69062;47.460;18.812;2024-01-25T05:54:41;100601.38;;;6.34;71.17
79236;BME280;69062;47.460;18.812;2024-01-25T05:56:44;100605.72;;;6.35;70.73
79236;BME280;69062;47.460;18.812;2024-01-25T05:58:46;100601.34;;;6.35;71.30
79236;BME280;69062;47.460;18.812;2024-01-25T06:00:49;100601.47;;;6.31;70.85
79236;BME280;69062;47.460;18.812;2024-01-25T06:02:52;100609.34;;;6.31;71.46
79236;BME280;69062;47.460;18.812;2024-01-25T06:04:55;100601.47;;;6.29;70.92
79236;BME280;69062;47.460;18.812;2024-01-25T06:07:01;100600.63;;;6.29;70.94
79236;BME280;69062;47.460;18.812;2024-01-25T06:09:04;100611.97;;;6.31;71.12
79236;BME280;69062;47.460;18.812;2024-01-25T06:11:15;100608.44;;;6.32;70.97
79236;BME280;69062;47.460;18.812;2024-01-25T06:13:18;100620.56;;;6.36;70.22
79236;BME280;69062;47.460;18.812;2024-01-25T06:15:21;100624.03;;;6.36;70.81
79236;BME280;69062;47.460;18.812;2024-01-25T06:17:23;100621.31;;;6.41;70.66
79236;BME280;69062;47.460;18.812;2024-01-25T06:19:26;100627.50;;;6.39;70.74
79236;BME280;69062;47.460;18.812;2024-01-25T06:21:29;100623.06;;;6.41;70.36
79236;BME280;69062;47.460;18.812;2024-01-25T06:23:32;100623.03;;;6.42;70.58
79236;BME280;69062;47.460;18.812;2024-01-25T06:25:35;100627.31;;;6.46;69.82
79236;BME280;69062;47.460;18.812;2024-01-25T06:27:38;100631.50;;;6.53;70.09
79236;BME280;69062;47.460;18.812;2024-01-25T06:29:41;100627.06;;;6.55;69.18
79236;BME280;69062;47.460;18.812;2024-01-25T06:31:44;100630.47;;;6.59;69.03
79236;BME280;69062;47.460;18.812;2024-01-25T06:33:47;100631.16;;;6.66;69.13
79236;BME280;69062;47.460;18.812;2024-01-25T06:35:55;100637.88;;;6.77;67.94
79236;BME280;69062;47.460;18.812;2024-01-25T06:37:57;100632.50;;;6.82;68.76
79236;BME280;69062;47.460;18.812;2024-01-25T06:40:00;100627.88;;;6.91;68.44
79236;BME280;69062;47.460;18.812;2024-01-25T06:42:03;100628.56;;;6.98;67.72
79236;BME280;69062;47.460;18.812;2024-01-25T06:44:06;100618.81;;;7.02;67.51
79236;BME280;69062;47.460;18.812;2024-01-25T06:46:09;100607.34;;;7.06;67.45
79236;BME280;69062;47.460;18.812;2024-01-25T06:48:11;100603.75;;;7.08;67.15
79236;BME280;69062;47.460;18.812;2024-01-25T06:50:14;100610.72;;;7.09;67.02
79236;BME280;69062;47.460;18.812;2024-01-25T06:52:18;100598.41;;;7.13;66.55
79236;BME280;69062;47.460;18.812;2024-01-25T06:54:21;100604.28;;;7.21;66.41
79236;BME280;69062;47.460;18.812;2024-01-25T06:56:24;100593.50;;;7.30;66.38
79236;BME280;69062;47.460;18.812;2024-01-25T06:58:27;100592.69;;;7.28;66.41
79236;BME280;69062;47.460;18.812;2024-01-25T07:00:31;100588.34;;;7.27;66.23
79236;BME280;69062;47.460;18.812;2024-01-25T07:02:34;100583.09;;;7.27;65.78
79236;BME280;69062;47.460;18.812;2024-01-25T07:04:37;100579.44;;;7.33;66.05
79236;BME280;69062;47.460;18.812;2024-01-25T07:06:43;100574.22;;;7.31;66.33
79236;BME280;69062;47.460;18.812;2024-01-25T07:08:46;100569.75;;;7.35;65.66
79236;BME280;69062;47.460;18.812;2024-01-25T07:10:49;100568.06;;;7.32;65.41
79236;BME280;69062;47.460;18.812;2024-01-25T07:12:52;100559.50;;;7.26;65.83
79236;BME280;69062;47.460;18.812;2024-01-25T07:14:56;100563.06;;;7.25;65.02
79236;BME280;69062;47.460;18.812;2024-01-25T07:16:59;100567.50;;;7.21;65.91
79236;BME280;69062;47.460;18.812;2024-01-25T07:19:01;100570.25;;;7.18;65.59
79236;BME280;69062;47.460;18.812;2024-01-25T07:21:05;100578.03;;;7.21;65.45
79236;BME280;69062;47.460;18.812;2024-01-25T07:23:08;100570.09;;;7.23;65.28
79236;BME280;69062;47.460;18.812;2024-01-25T07:25:11;100571.00;;;7.22;65.38
79236;BME280;69062;47.460;18.812;2024-01-25T07:27:14;100572.66;;;7.24;65.78
79236;BME280;69062;47.460;18.812;2024-01-25T07:29:16;100578.75;;;7.26;65.67
79236;BME280;69062;47.460;18.812;2024-01-25T07:31:19;100576.06;;;7.28;65.82
79236;BME280;69062;47.460;18.812;2024-01-25T07:33:23;100587.41;;;7.30;65.47
79236;BME280;69062;47.460;18.812;2024-01-25T07:35:26;100582.09;;;7.31;65.28
79236;BME280;69062;47.460;18.812;2024-01-25T07:37:28;100588.25;;;7.60;65.02
79236;BME280;69062;47.460;18.812;2024-01-25T07:39:31;100584.56;;;7.65;64.22
79236;BME280;69062;47.460;18.812;2024-01-25T07:41:34;100573.75;;;7.76;63.71
79236;BME280;69062;47.460;18.812;2024-01-25T07:43:40;100577.81;;;8.13;63.01
79236;BME280;69062;47.460;18.812;2024-01-25T07:45:43;100568.44;;;8.30;61.29
79236;BME280;69062;47.460;18.812;2024-01-25T07:47:46;100569.75;;;8.70;60.11
79236;BME280;69062;47.460;18.812;2024-01-25T07:49:50;100553.00;;;9.20;58.29
79236;BME280;69062;47.460;18.812;2024-01-25T07:51:53;100558.56;;;9.81;55.23
79236;BME280;69062;47.460;18.812;2024-01-25T07:53:58;100550.34;;;10.53;53.56
79236;BME280;69062;47.460;18.812;2024-01-25T07:56:01;100536.06;;;10.77;53.39
79236;BME280;69062;47.460;18.812;2024-01-25T07:58:03;100535.47;;;11.28;51.96
79236;BME280;69062;47.460;18.812;2024-01-25T08:00:07;100519.25;;;11.55;51.50
79236;BME280;69062;47.460;18.812;2024-01-25T08:02:11;100517.88;;;12.01;49.90
79236;BME280;69062;47.460;18.812;2024-01-25T08:04:14;100508.69;;;11.91;49.80
79236;BME280;69062;47.460;18.812;2024-01-25T08:06:17;100508.03;;;12.05;48.61
79236;BME280;69062;47.460;18.812;2024-01-25T08:08:20;100504.66;;;12.53;47.69
79236;BME280;69062;47.460;18.812;2024-01-25T08:10:23;100496.84;;;12.67;47.14
79236;BME280;69062;47.460;18.812;2024-01-25T08:12:25;100505.88;;;12.63;46.59
79236;BME280;69062;47.460;18.812;2024-01-25T08:14:28;100510.03;;;12.69;47.26
79236;BME280;69062;47.460;18.812;2024-01-25T08:16:31;100501.94;;;12.88;46.61
79236;BME280;69062;47.460;18.812;2024-01-25T08:18:34;100508.31;;;13.17;46.74
79236;BME280;69062;47.460;18.812;2024-01-25T08:20:38;100517.69;;;13.40;45.16
79236;BME280;69062;47.460;18.812;2024-01-25T08:22:41;100513.06;;;13.28;45.31
79236;BME280;69062;47.460;18.812;2024-01-25T08:24:44;100530.28;;;13.52;44.79
79236;BME280;69062;47.460;18.812;2024-01-25T08:26:47;100529.25;;;13.39;45.00
79236;BME280;69062;47.460;18.812;2024-01-25T08:28:50;100527.47;;;13.71;44.30
79236;BME280;69062;47.460;18.812;2024-01-25T08:30:52;100553.03;;;14.33;43.52
79236;BME280;69062;47.460;18.812;2024-01-25T08:32:55;100543.00;;;14.08;43.64
79236;BME280;69062;47.460;18.812;2024-01-25T08:34:58;100553.38;;;14.43;42.86
79236;BME280;69062;47.460;18.812;2024-01-25T08:37:02;100552.50;;;14.43;42.22
79236;BME280;69062;47.460;18.812;2024-01-25T08:39:05;100550.41;;;14.64;41.61
79236;BME280;69062;47.460;18.812;2024-01-25T08:41:08;100569.31;;;14.73;41.12
79236;BME280;69062;47.460;18.812;2024-01-25T08:43:11;100560.59;;;14.85;40.44
79236;BME280;69062;47.460;18.812;2024-01-25T08:45:14;100556.63;;;14.93;41.82
79236;BME280;69062;47.460;18.812;2024-01-25T08:47:18;100558.28;;;14.65;40.63
79236;BME280;69062;47.460;18.812;2024-01-25T08:49:21;100537.53;;;15.00;40.23
79236;BME280;69062;47.460;18.812;2024-01-25T08:51:24;100546.00;;;15.21;39.78
79236;BME280;69062;47.460;18.812;2024-01-25T08:53:27;100553.19;;;15.19;40.10
79236;BME280;69062;47.460;18.812;2024-01-25T08:55:30;100567.28;;;15.07;39.93
79236;BME280;69062;47.460;18.812;2024-01-25T08:57:33;100550.44;;;15.21;39.97
79236;BME280;69062;47.460;18.812;2024-01-25T08:59:36;100560.19;;;14.63;40.81
79236;BME280;69062;47.460;18.812;2024-01-25T09:01:40;100563.72;;;14.78;40.73
79236;BME280;69062;47.460;18.812;2024-01-25T09:03:42;100572.38;;;14.81;40.53
79236;BME280;69062;47.460;18.812;2024-01-25T09:05:45;100568.75;;;14.82;39.90
79236;BME280;69062;47.460;18.812;2024-01-25T09:07:48;100574.28;;;14.79;40.58
79236;BME280;69062;47.460;18.812;2024-01-25T09:09:53;100580.09;;;15.00;40.42
79236;BME280;69062;47.460;18.812;2024-01-25T09:11:56;100584.06;;;14.93;40.15
79236;BME280;69062;47.460;18.812;2024-01-25T09:13:59;100580.25;;;14.97;39.99
79236;BME280;69062;47.460;18.812;2024-01-25T09:16:02;100583.97;;;14.95;40.38
79236;BME280;69062;47.460;18.812;2024-01-25T09:18:05;100576.97;;;15.08;39.95
79236;BME280;69062;47.460;18.812;2024-01-25T09:20:08;100581.47;;;14.92;40.21
79236;BME280;69062;47.460;18.812;2024-01-25T09:22:11;100586.22;;;14.72;40.07
79236;BME280;69062;47.460;18.812;2024-01-25T09:24:14;100588.34;;;14.96;39.88
79236;BME280;69062;47.460;18.812;2024-01-25T09:26:17;100581.13;;;15.12;39.96
79236;BME280;69062;47.460;18.812;2024-01-25T09:28:20;100584.16;;;15.34;39.33
79236;BME280;69062;47.460;18.812;2024-01-25T09:30:24;100606.88;;;15.26;39.19
79236;BME280;69062;47.460;18.812;2024-01-25T09:32:27;100597.09;;;15.40;39.06
79236;BME280;69062;47.460;18.812;2024-01-25T09:34:30;100596.66;;;14.75;39.12
79236;BME280;69062;47.460;18.812;2024-01-25T09:36:33;100599.75;;;15.12;38.95
79236;BME280;69062;47.460;18.812;2024-01-25T09:38:36;100597.31;;;15.23;38.33
79236;BME280;69062;47.460;18.812;2024-01-25T09:40:39;100605.22;;;14.80;38.95
79236;BME280;69062;47.460;18.812;2024-01-25T09:42:42;100612.84;;;14.86;39.39
79236;BME280;69062;47.460;18.812;2024-01-25T09:44:47;100622.53;;;14.87;38.79
79236;BME280;69062;47.460;18.812;2024-01-25T09:46:51;100609.63;;;14.96;39.25
79236;BME280;69062;47.460;18.812;2024-01-25T09:48:54;100622.06;;;14.95;39.45
79236;BME280;69062;47.460;18.812;2024-01-25T09:50:58;100613.38;;;14.63;39.43
79236;BME280;69062;47.460;18.812;2024-01-25T09:53:03;100603.22;;;14.08;40.62
79236;BME280;69062;47.460;18.812;2024-01-25T09:55:08;100595.41;;;13.26;43.34
79236;BME280;69062;47.460;18.812;2024-01-25T09:57:16;100597.66;;;12.99;43.49
79236;BME280;69062;47.460;18.812;2024-01-25T09:59:22;100593.72;;;12.73;44.51
79236;BME280;69062;47.460;18.812;2024-01-25T10:01:25;100595.97;;;12.29;45.95
79236;BME280;69062;47.460;18.812;2024-01-25T10:03:28;100593.28;;;12.11;46.79
79236;BME280;69062;47.460;18.812;2024-01-25T10:05:31;100595.59;;;12.54;45.77
79236;BME280;69062;47.460;18.812;2024-01-25T10:07:40;100591.38;;;12.50;45.60
79236;BME280;69062;47.460;18.812;2024-01-25T10:09:43;100600.06;;;12.53;45.51
79236;BME280;69062;47.460;18.812;2024-01-25T10:11:46;100609.47;;;12.05;46.78
79236;BME280;69062;47.460;18.812;2024-01-25T10:14:01;100595.31;;;11.87;46.80
79236;BME280;69062;47.460;18.812;2024-01-25T10:16:04;100601.34;;;11.91;46.91
79236;BME280;69062;47.460;18.812;2024-01-25T10:18:08;100590.91;;;11.88;47.05
79236;BME280;69062;47.460;18.812;2024-01-25T10:20:31;100584.00;;;11.65;47.21
79236;BME280;69062;47.460;18.812;2024-01-25T10:22:36;100590.09;;;11.67;47.63
79236;BME280;69062;47.460;18.812;2024-01-25T10:24:40;100596.44;;;11.44;47.59
79236;BME280;69062;47.460;18.812;2024-01-25T10:26:43;100599.09;;;11.44;47.60
79236;BME280;69062;47.460;18.812;2024-01-25T10:28:53;100585.84;;;11.44;47.89
79236;BME280;69062;47.460;18.812;2024-01-25T10:31:03;100593.94;;;11.41;48.35
79236;BME280;69062;47.460;18.812;2024-01-25T10:33:09;100591.94;;;11.27;47.68
79236;BME280;69062;47.460;18.812;2024-01-25T10:35:14;100589.44;;;11.43;48.18
79236;BME280;69062;47.460;18.812;2024-01-25T10:37:20;100582.44;;;11.42;48.41
79236;BME280;69062;47.460;18.812;2024-01-25T10:39:24;100583.03;;;11.30;48.77
79236;BME280;69062;47.460;18.812;2024-01-25T10:41:28;100586.28;;;11.16;48.73
79236;BME280;69062;47.460;18.812;2024-01-25T10:43:31;100614.97;;;11.05;49.36